Time;durP1;ratioP1;P1;durP2;ratioP2;P2;SDS_P1;SDS_P2;PMS_P1;PMS_P2;Temp;Humidity;BMP_temperature;BMP_pressure;BME280_temperature;BME280_humidity;BME280_pressure;Samples;Min_cycle;Max_cycle;Signal;HPM_P1;HPM_P2
2021/08/12 00:00:12;;;;;;;8.60;4.80;;;20.90;79.80;;;;;;5033792;28;20024;-66
2021/08/12 00:02:37;;;;;;;7.65;4.93;;;20.90;80.00;;;;;;5033429;28;20048;-67
2021/08/12 00:05:07;;;;;;;9.02;5.45;;;20.90;79.90;;;;;;5050687;28;20402;-66
2021/08/12 00:07:33;;;;;;;7.65;5.00;;;20.90;80.00;;;;;;5051360;28;20028;-65
2021/08/12 00:10:00;;;;;;;7.57;4.97;;;20.90;79.90;;;;;;5049767;28;20017;-66
2021/08/12 00:12:26;;;;;;;8.05;4.70;;;20.80;80.00;;;;;;5050911;28;20369;-66
2021/08/12 00:14:52;;;;;;;7.50;4.82;;;20.80;80.00;;;;;;5050990;28;20533;-66
2021/08/12 00:17:17;;;;;;;7.88;5.07;;;20.80;80.10;;;;;;5051299;28;20035;-65
2021/08/12 00:19:43;;;;;;;7.45;4.68;;;20.80;80.10;;;;;;5050924;28;20021;-65
2021/08/12 00:22:09;;;;;;;8.70;5.38;;;20.80;80.20;;;;;;5051145;28;20111;-66
2021/08/12 00:24:34;;;;;;;8.98;5.10;;;20.80;80.30;;;;;;5050522;28;20112;-65
2021/08/12 00:27:02;;;;;;;8.20;5.03;;;20.80;80.20;;;;;;5050474;28;20028;-65
2021/08/12 00:29:30;;;;;;;7.63;4.82;;;20.80;80.20;;;;;;5037993;28;20027;-66
2021/08/12 00:31:56;;;;;;;7.50;4.85;;;20.80;80.10;;;;;;5031288;28;20079;-65
2021/08/12 00:34:21;;;;;;;9.07;5.13;;;20.80;80.10;;;;;;5029168;28;20574;-66
2021/08/12 00:36:47;;;;;;;7.55;4.75;;;20.80;80.20;;;;;;5030960;28;20030;-65
2021/08/12 00:39:13;;;;;;;7.63;5.07;;;20.80;80.20;;;;;;5029761;28;20022;-66
2021/08/12 00:41:39;;;;;;;9.35;5.25;;;20.80;80.20;;;;;;5034935;28;20014;-65
2021/08/12 00:44:05;;;;;;;7.97;4.70;;;20.70;80.20;;;;;;5037355;28;20032;-66
2021/08/12 00:46:31;;;;;;;8.13;5.05;;;20.70;80.20;;;;;;5037487;28;20100;-66
2021/08/12 00:48:56;;;;;;;7.95;5.18;;;20.70;80.20;;;;;;5037278;28;20518;-65
2021/08/12 00:51:22;;;;;;;7.40;4.88;;;20.70;80.40;;;;;;5037593;28;20549;-66
2021/08/12 00:53:48;;;;;;;7.78;4.93;;;20.70;80.30;;;;;;5037058;28;20028;-65
2021/08/12 00:56:14;;;;;;;7.90;4.90;;;20.70;80.50;;;;;;5037087;28;20100;-65
2021/08/12 00:58:40;;;;;;;8.75;5.10;;;20.70;80.40;;;;;;5037537;28;20096;-66
2021/08/12 01:01:05;;;;;;;7.70;4.88;;;20.70;80.40;;;;;;5037462;28;20033;-65
2021/08/12 01:03:31;;;;;;;8.13;5.22;;;20.70;80.50;;;;;;5035530;28;20021;-66
2021/08/12 01:05:57;;;;;;;7.07;4.78;;;20.70;80.50;;;;;;5035948;28;20722;-65
2021/08/12 01:08:48;;;;;;;8.27;5.38;;;20.70;80.40;;;;;;5037385;28;20088;-65
2021/08/12 01:11:35;;;;;;;8.73;5.28;;;20.70;80.40;;;;;;5037044;28;20152;-66
2021/08/12 01:14:23;;;;;;;7.80;4.53;;;20.70;80.20;;;;;;5037008;28;20096;-65
2021/08/12 01:17:19;;;;;;;8.15;5.15;;;20.70;80.40;;;;;;5036116;28;20022;-65
2021/08/12 01:19:56;;;;;;;8.95;5.38;;;20.60;80.50;;;;;;5051618;28;20051;-66
2021/08/12 01:22:23;;;;;;;9.07;5.03;;;20.60;80.70;;;;;;5035992;28;20482;-66
2021/08/12 01:24:58;;;;;;;8.90;5.10;;;20.60;80.70;;;;;;5036310;28;20075;-66
2021/08/12 01:27:29;;;;;;;7.25;5.20;;;20.70;80.80;;;;;;5037328;28;20065;-66
2021/08/12 01:30:10;;;;;;;7.93;5.03;;;20.60;80.80;;;;;;5054175;28;20389;-65
2021/08/12 01:33:08;;;;;;;9.30;4.88;;;20.60;80.80;;;;;;5056713;28;20092;-65
2021/08/12 01:35:36;;;;;;;8.35;4.88;;;20.60;80.80;;;;;;5057080;28;20016;-65
2021/08/12 01:38:06;;;;;;;9.10;5.15;;;20.60;81.00;;;;;;5057242;28;20032;-64
2021/08/12 01:40:33;;;;;;;9.73;5.07;;;20.60;81.00;;;;;;5056699;28;20074;-65
2021/08/12 01:43:04;;;;;;;9.15;5.13;;;20.60;81.20;;;;;;5056809;28;20052;-65
2021/08/12 01:45:30;;;;;;;8.13;5.28;;;20.60;81.10;;;;;;5038946;28;20028;-65
2021/08/12 01:47:57;;;;;;;8.63;5.38;;;20.60;81.50;;;;;;5056416;28;20032;-65
2021/08/12 01:50:25;;;;;;;7.60;5.03;;;20.60;81.20;;;;;;5056995;28;20062;-64
2021/08/12 01:52:52;;;;;;;7.57;4.80;;;20.50;81.10;;;;;;5036973;28;20027;-66
2021/08/12 01:55:21;;;;;;;7.22;4.65;;;20.50;81.20;;;;;;5035472;28;20386;-67
2021/08/12 01:57:46;;;;;;;7.03;4.60;;;20.50;81.30;;;;;;5035834;28;20027;-65
2021/08/12 02:00:13;;;;;;;8.38;4.50;;;20.50;81.40;;;;;;5053653;28;20104;-65
2021/08/12 02:02:41;;;;;;;7.68;4.75;;;20.50;81.40;;;;;;5053188;28;20024;-65
2021/08/12 02:05:10;;;;;;;8.43;5.05;;;20.50;81.30;;;;;;5053200;28;20021;-65
2021/08/12 02:07:36;;;;;;;8.23;5.00;;;20.50;81.30;;;;;;5053713;28;20017;-65
2021/08/12 02:10:03;;;;;;;8.02;4.82;;;20.50;81.40;;;;;;5035288;28;20021;-65
2021/08/12 02:12:29;;;;;;;7.25;4.97;;;20.50;81.30;;;;;;5053327;28;20111;-65
2021/08/12 02:14:54;;;;;;;7.28;4.40;;;20.50;81.40;;;;;;5053014;28;20096;-65
2021/08/12 02:17:20;;;;;;;8.65;5.15;;;20.50;81.50;;;;;;5052997;28;20025;-65
2021/08/12 02:19:45;;;;;;;7.80;4.70;;;20.50;81.70;;;;;;5033167;28;20029;-66
2021/08/12 02:22:17;;;;;;;8.73;5.05;;;20.50;81.60;;;;;;5034285;28;20029;-66
2021/08/12 02:24:47;;;;;;;7.68;4.90;;;20.50;81.60;;;;;;5015894;28;20026;-65
2021/08/12 02:27:17;;;;;;;8.27;5.00;;;20.50;81.60;;;;;;5033297;28;20029;-65
2021/08/12 02:29:44;;;;;;;6.75;4.40;;;20.50;81.60;;;;;;5035288;28;20384;-65
2021/08/12 02:32:15;;;;;;;9.25;5.20;;;20.50;81.70;;;;;;5034873;28;20444;-65
2021/08/12 02:34:44;;;;;;;;;;;20.50;81.70;;;;;;5035223;28;20021;-65
2021/08/12 02:37:13;;;;;;;8.45;4.80;;;20.40;81.60;;;;;;5053066;28;19935;-64
2021/08/12 02:39:41;;;;;;;8.50;4.85;;;20.40;81.70;;;;;;5014510;28;20032;-65
2021/08/12 02:42:08;;;;;;;7.50;4.75;;;20.40;81.90;;;;;;5015293;28;20022;-65
2021/08/12 02:44:35;;;;;;;8.18;5.22;;;20.40;81.90;;;;;;5042858;28;20052;-66
2021/08/12 02:47:03;;;;;;;8.13;5.05;;;20.40;81.90;;;;;;5052204;28;20028;-65
2021/08/12 02:49:31;;;;;;;7.03;4.55;;;20.40;81.90;;;;;;5034622;28;20139;-65
2021/08/12 02:51:59;;;;;;;8.80;4.97;;;20.40;81.80;;;;;;5052721;28;20083;-65
2021/08/12 02:54:27;;;;;;;7.97;4.85;;;20.40;81.80;;;;;;5051772;28;20024;-65
2021/08/12 02:56:58;;;;;;;8.73;5.10;;;20.40;81.80;;;;;;5041243;28;20021;-66
2021/08/12 02:59:24;;;;;;;7.65;4.93;;;20.40;81.80;;;;;;5032815;28;20534;-65
2021/08/12 03:01:51;;;;;;;7.70;5.10;;;20.40;82.00;;;;;;5052140;28;20100;-65
2021/08/12 03:04:20;;;;;;;8.75;4.90;;;20.40;81.80;;;;;;5051638;28;20032;-66
2021/08/12 03:06:52;;;;;;;7.60;4.80;;;20.40;81.90;;;;;;5052394;28;20363;-65
2021/08/12 03:09:19;;;;;;;9.35;4.57;;;20.40;81.80;;;;;;5034132;28;20382;-65
2021/08/12 03:11:45;;;;;;;7.63;5.00;;;20.40;81.80;;;;;;5052475;28;20036;-65
2021/08/12 03:14:11;;;;;;;7.95;4.93;;;20.40;81.90;;;;;;5051613;28;20048;-65
2021/08/12 03:16:38;;;;;;;7.22;4.47;;;20.40;81.90;;;;;;5033874;28;20090;-65
2021/08/12 03:19:04;;;;;;;8.68;4.88;;;20.30;81.90;;;;;;5052167;28;20100;-65
2021/08/12 03:21:30;;;;;;;8.60;5.25;;;20.30;81.90;;;;;;5052133;28;20052;-64
2021/08/12 03:24:01;;;;;;;7.07;4.88;;;20.30;81.90;;;;;;5051389;28;20100;-64
2021/08/12 03:26:26;;;;;;;8.65;4.55;;;20.40;81.90;;;;;;5051880;28;20029;-64
2021/08/12 03:28:52;;;;;;;8.10;4.53;;;20.30;81.90;;;;;;5051624;28;20033;-63
2021/08/12 03:31:17;;;;;;;8.57;5.22;;;20.30;81.90;;;;;;5051450;28;20043;-65
2021/08/12 03:33:43;;;;;;;7.65;5.03;;;20.30;81.90;;;;;;5037392;28;20060;-65
2021/08/12 03:36:09;;;;;;;8.82;4.70;;;20.30;81.90;;;;;;5031870;28;20507;-64
2021/08/12 03:38:35;;;;;;;7.88;4.63;;;20.30;81.90;;;;;;5013761;28;20036;-65
2021/08/12 03:41:00;;;;;;;8.10;4.53;;;20.20;81.90;;;;;;5031880;28;20394;-65
2021/08/12 03:43:26;;;;;;;8.27;4.65;;;20.30;82.00;;;;;;5031513;28;20029;-65
2021/08/12 03:45:51;;;;;;;7.80;4.72;;;20.30;82.00;;;;;;5031169;28;20017;-64
2021/08/12 03:48:17;;;;;;;7.65;4.80;;;20.30;82.00;;;;;;5031686;28;20033;-64
2021/08/12 03:50:42;;;;;;;8.13;4.68;;;20.30;82.00;;;;;;5031511;28;20113;-65
2021/08/12 03:53:08;;;;;;;7.97;4.55;;;20.20;82.00;;;;;;5013032;28;20072;-65
2021/08/12 03:55:33;;;;;;;8.13;5.05;;;20.20;82.10;;;;;;5031498;28;20047;-64
2021/08/12 03:57:59;;;;;;;8.00;5.00;;;20.30;82.20;;;;;;5031367;28;20025;-64
2021/08/12 04:00:24;;;;;;;6.80;4.50;;;20.30;82.30;;;;;;5031112;28;20029;-65
2021/08/12 04:02:50;;;;;;;7.63;4.80;;;20.20;82.20;;;;;;5031095;28;20494;-60
2021/08/12 04:05:16;;;;;;;7.00;4.32;;;20.20;82.20;;;;;;5031308;28;20041;-64
2021/08/12 04:07:41;;;;;;;7.47;4.65;;;20.30;82.30;;;;;;5021128;28;20049;-64
2021/08/12 04:10:07;;;;;;;7.63;4.63;;;20.30;82.40;;;;;;5028396;28;20060;-65
2021/08/12 04:12:33;;;;;;;7.85;4.20;;;20.20;82.40;;;;;;5030257;28;20399;-64
2021/08/12 04:14:58;;;;;;;8.18;5.13;;;20.20;82.50;;;;;;5030062;28;20036;-64
2021/08/12 04:17:24;;;;;;;7.50;4.68;;;20.20;82.60;;;;;;5030673;28;20048;-64
2021/08/12 04:19:49;;;;;;;6.88;4.38;;;20.20;82.70;;;;;;5026721;28;20056;-64
2021/08/12 04:22:15;;;;;;;7.72;4.30;;;20.20;82.50;;;;;;5033979;28;20101;-63
2021/08/12 04:24:40;;;;;;;7.90;4.88;;;20.20;82.60;;;;;;5029950;28;20025;-65
2021/08/12 04:27:06;;;;;;;7.85;4.40;;;20.20;82.70;;;;;;5029973;28;20079;-64
2021/08/12 04:29:32;;;;;;;7.43;5.10;;;20.20;82.90;;;;;;5028972;28;20108;-62
2021/08/12 04:31:57;;;;;;;8.73;4.43;;;20.20;82.90;;;;;;5029817;28;20033;-64
2021/08/12 04:34:23;;;;;;;7.18;4.30;;;20.20;82.90;;;;;;5030249;28;20025;-63
2021/08/12 04:36:49;;;;;;;7.47;4.82;;;20.20;83.10;;;;;;5029681;28;20037;-64
2021/08/12 04:39:14;;;;;;;8.35;5.18;;;20.20;83.10;;;;;;5049004;28;20029;-63
2021/08/12 04:41:40;;;;;;;9.35;5.50;;;20.20;83.30;;;;;;5014024;28;20071;-63
2021/08/12 04:44:06;;;;;;;9.93;6.03;;;20.20;83.30;;;;;;5030648;28;20410;-64
2021/08/12 04:46:31;;;;;;;8.30;5.82;;;20.20;83.40;;;;;;5031683;28;20521;-65
2021/08/12 04:48:57;;;;;;;9.20;6.13;;;20.20;83.40;;;;;;5033278;28;20538;-63
2021/08/12 04:51:22;;;;;;;11.10;7.38;;;20.10;83.20;;;;;;5030955;28;20025;-63
2021/08/12 04:53:48;;;;;;;10.25;6.88;;;20.20;83.10;;;;;;5002359;28;20071;-62
2021/08/12 04:56:14;;;;;;;12.15;7.20;;;20.10;83.00;;;;;;5011722;28;20501;-64
2021/08/12 04:58:39;;;;;;;10.00;6.57;;;20.10;82.80;;;;;;5032706;28;20031;-63
2021/08/12 05:01:05;;;;;;;10.27;6.65;;;20.20;82.70;;;;;;5029069;28;20410;-63
2021/08/12 05:03:30;;;;;;;9.50;6.40;;;20.10;82.60;;;;;;5029023;28;20030;-63
2021/08/12 05:06:04;;;;;;;8.80;6.45;;;20.20;82.40;;;;;;5007872;28;20071;-62
2021/08/12 05:08:30;;;;;;;10.18;6.40;;;20.10;82.40;;;;;;5040084;28;20152;-64
2021/08/12 05:10:56;;;;;;;9.32;6.40;;;20.20;82.10;;;;;;5046811;28;20036;-63
2021/08/12 05:13:22;;;;;;;10.20;6.38;;;20.20;81.70;;;;;;5014233;28;20395;-62
2021/08/12 05:15:47;;;;;;;14.00;7.20;;;20.20;81.80;;;;;;5004267;28;20030;-64
2021/08/12 05:18:13;;;;;;;12.55;8.10;;;20.30;81.20;;;;;;4987153;28;20064;-66
2021/08/12 05:20:39;;;;;;;17.35;7.60;;;20.20;81.70;;;;;;5009476;28;20377;-65
2021/08/12 05:23:05;;;;;;;12.70;7.57;;;20.30;81.30;;;;;;5002343;28;20033;-65
2021/08/12 05:25:30;;;;;;;11.35;7.30;;;20.30;81.80;;;;;;5025608;28;20372;-65
2021/08/12 05:27:59;;;;;;;12.07;7.65;;;20.30;81.50;;;;;;5047191;28;20119;-65
2021/08/12 05:30:25;;;;;;;13.98;7.85;;;20.30;82.00;;;;;;5033901;28;20032;-64
2021/08/12 05:32:50;;;;;;;11.55;7.55;;;20.30;81.90;;;;;;5037429;28;21050;-65
2021/08/12 05:35:16;;;;;;;13.60;7.05;;;20.30;81.70;;;;;;5033927;28;20108;-64
2021/08/12 05:37:42;;;;;;;15.13;7.70;;;20.30;81.90;;;;;;5010320;28;20376;-64
2021/08/12 05:40:08;;;;;;;10.57;7.03;;;20.30;81.20;;;;;;5020408;28;20038;-65
2021/08/12 05:42:33;;;;;;;10.10;7.30;;;20.30;81.50;;;;;;5009181;28;20038;-64
2021/08/12 05:44:59;;;;;;;11.20;7.70;;;20.30;80.70;;;;;;5020291;28;20075;-64
2021/08/12 05:47:24;;;;;;;12.02;7.93;;;20.30;80.80;;;;;;5035445;28;20112;-66
2021/08/12 05:49:50;;;;;;;11.95;8.32;;;20.50;79.50;;;;;;5030466;28;20486;-64
2021/08/12 05:52:16;;;;;;;11.80;8.10;;;20.60;78.30;;;;;;5034360;28;20022;-65
2021/08/12 05:54:41;;;;;;;11.93;8.00;;;20.60;77.70;;;;;;4988138;28;20057;-64
2021/08/12 05:57:07;;;;;;;11.10;7.88;;;20.70;77.40;;;;;;4987272;28;20376;-63
2021/08/12 05:59:32;;;;;;;12.75;8.10;;;20.70;76.90;;;;;;5010604;28;20120;-64
2021/08/12 06:01:58;;;;;;;11.48;7.63;;;20.80;77.20;;;;;;5039417;28;20823;-65
2021/08/12 06:04:23;;;;;;;10.73;7.50;;;20.80;76.60;;;;;;5022491;28;20102;-63
2021/08/12 06:06:49;;;;;;;10.45;7.07;;;20.80;76.60;;;;;;5012247;28;20033;-64
2021/08/12 06:09:14;;;;;;;11.07;7.35;;;20.90;76.80;;;;;;5008973;28;20398;-66
2021/08/12 06:11:40;;;;;;;9.85;6.55;;;21.00;76.60;;;;;;5031049;28;20045;-66
2021/08/12 06:14:06;;;;;;;11.80;7.50;;;21.10;76.40;;;;;;5018233;28;20036;-64
2021/08/12 06:16:31;;;;;;;11.02;7.82;;;21.00;76.30;;;;;;5036025;28;20060;-64
2021/08/12 06:18:57;;;;;;;9.45;7.38;;;21.00;76.20;;;;;;5044272;28;20691;-64
2021/08/12 06:21:23;;;;;;;12.30;7.32;;;21.10;76.10;;;;;;5021878;28;20025;-66
2021/08/12 06:23:50;;;;;;;8.82;6.93;;;21.10;76.10;;;;;;5031986;28;20048;-64
2021/08/12 06:26:16;;;;;;;9.25;7.00;;;21.20;75.80;;;;;;5022425;28;20034;-65
2021/08/12 06:28:43;;;;;;;11.13;6.88;;;21.20;75.50;;;;;;5017372;28;20021;-64
2021/08/12 06:31:09;;;;;;;10.02;6.82;;;21.20;75.80;;;;;;5022166;28;20067;-66
2021/08/12 06:33:34;;;;;;;9.43;6.72;;;21.10;76.10;;;;;;5020906;28;20033;-65
2021/08/12 06:36:00;;;;;;;11.27;6.05;;;21.10;76.30;;;;;;5039551;28;20033;-64
2021/08/12 06:38:26;;;;;;;10.32;6.38;;;21.10;77.30;;;;;;5022065;28;20083;-65
2021/08/12 06:40:51;;;;;;;8.98;6.38;;;21.10;76.50;;;;;;4993396;28;20033;-65
2021/08/12 06:43:17;;;;;;;10.82;6.97;;;21.20;76.30;;;;;;5004960;28;20025;-64
2021/08/12 06:45:44;;;;;;;9.57;6.35;;;21.40;76.00;;;;;;4989305;28;20049;-64
2021/08/12 06:48:10;;;;;;;11.63;6.53;;;21.60;75.00;;;;;;4989199;28;20041;-62
2021/08/12 06:50:36;;;;;;;8.95;6.40;;;21.70;74.40;;;;;;4989794;28;20034;-64
2021/08/12 06:53:02;;;;;;;9.27;6.57;;;21.70;74.00;;;;;;4989842;28;20036;-64
2021/08/12 06:55:30;;;;;;;10.77;6.43;;;21.80;73.80;;;;;;4989880;28;20490;-65
2021/08/12 06:57:56;;;;;;;8.63;6.10;;;21.80;73.40;;;;;;4988740;28;20040;-66
2021/08/12 07:00:22;;;;;;;12.80;6.78;;;21.90;73.10;;;;;;5019852;28;20038;-63
2021/08/12 07:02:48;;;;;;;8.75;6.43;;;21.90;73.20;;;;;;5014277;28;20525;-63
2021/08/12 07:05:13;;;;;;;10.07;6.70;;;21.90;73.20;;;;;;5027656;28;20033;-63
2021/08/12 07:07:39;;;;;;;13.25;6.65;;;22.00;73.10;;;;;;5021124;28;20026;-64
2021/08/12 07:10:05;;;;;;;10.60;6.90;;;22.10;72.90;;;;;;4991845;28;20025;-64
2021/08/12 07:12:30;;;;;;;9.60;6.18;;;22.10;72.90;;;;;;5010261;28;20018;-64
2021/08/12 07:14:56;;;;;;;12.00;6.53;;;22.10;72.90;;;;;;5011656;28;20030;-64
2021/08/12 07:17:22;;;;;;;9.40;6.55;;;22.00;73.00;;;;;;5012365;28;20037;-64
2021/08/12 07:19:47;;;;;;;9.13;6.10;;;22.00;73.20;;;;;;4994921;28;20025;-64
2021/08/12 07:22:13;;;;;;;10.02;6.63;;;22.00;73.30;;;;;;5012104;28;20017;-64
2021/08/12 07:24:38;;;;;;;10.18;5.85;;;22.00;73.20;;;;;;4994595;28;20379;-63
2021/08/12 07:27:04;;;;;;;9.00;6.32;;;22.20;72.90;;;;;;5012168;28;20431;-63
2021/08/12 07:29:29;;;;;;;8.55;6.05;;;22.30;72.50;;;;;;5020621;28;20025;-64
2021/08/12 07:31:55;;;;;;;9.15;5.88;;;22.40;72.10;;;;;;5051993;28;20024;-64
2021/08/12 07:34:20;;;;;;;10.38;5.72;;;22.50;71.50;;;;;;5050245;28;20064;-64
2021/08/12 07:36:46;;;;;;;9.60;5.57;;;22.60;71.20;;;;;;5051199;28;20039;-63
2021/08/12 07:39:13;;;;;;;9.60;5.88;;;22.60;70.80;;;;;;5051990;28;20032;-64
2021/08/12 07:41:39;;;;;;;9.50;6.13;;;22.70;70.30;;;;;;5051736;28;20029;-64
2021/08/12 07:44:05;;;;;;;10.95;6.68;;;22.70;70.00;;;;;;5049691;28;20116;-63
2021/08/12 07:46:31;;;;;;;9.20;5.85;;;22.70;69.80;;;;;;5033683;28;20152;-65
2021/08/12 07:48:57;;;;;;;9.15;5.88;;;22.80;70.00;;;;;;5050713;28;20094;-63
2021/08/12 07:51:23;;;;;;;8.20;5.40;;;22.90;69.70;;;;;;5033057;28;20025;-64
2021/08/12 07:53:53;;;;;;;11.27;5.28;;;22.90;69.70;;;;;;5033380;28;20110;-64
2021/08/12 07:56:19;;;;;;;8.88;6.00;;;23.00;69.60;;;;;;5051672;28;20021;-64
2021/08/12 07:58:45;;;;;;;8.52;5.63;;;23.00;69.10;;;;;;5051229;28;20479;-64
2021/08/12 08:01:11;;;;;;;9.07;5.28;;;23.10;69.10;;;;;;5051601;28;20096;-64
2021/08/12 08:03:36;;;;;;;9.70;5.45;;;23.10;69.20;;;;;;5049888;28;20029;-64
2021/08/12 08:06:02;;;;;;;7.93;4.70;;;23.20;69.10;;;;;;5050600;28;20413;-64
2021/08/12 08:08:28;;;;;;;9.90;6.35;;;23.20;68.70;;;;;;5051375;28;20482;-64
2021/08/12 08:10:54;;;;;;;8.80;5.50;;;23.20;68.60;;;;;;5051355;28;20076;-64
2021/08/12 08:13:20;;;;;;;8.55;5.82;;;23.30;68.70;;;;;;5032526;28;20021;-66
2021/08/12 08:15:45;;;;;;;9.18;6.40;;;23.30;68.30;;;;;;5050058;28;20024;-65
2021/08/12 08:18:11;;;;;;;9.60;6.07;;;23.40;67.90;;;;;;5050025;28;20017;-64
2021/08/12 08:20:37;;;;;;;9.88;6.60;;;23.40;67.80;;;;;;5050510;28;20045;-63
2021/08/12 08:23:06;;;;;;;9.50;6.40;;;23.50;68.00;;;;;;5050931;28;20043;-64
2021/08/12 08:25:32;;;;;;;9.10;5.63;;;23.60;67.60;;;;;;5051008;28;20399;-64
2021/08/12 08:27:58;;;;;;;9.00;5.85;;;23.60;67.60;;;;;;5050133;28;20025;-64
2021/08/12 08:30:24;;;;;;;9.60;5.88;;;23.70;67.10;;;;;;5029947;28;20087;-64
2021/08/12 08:32:49;;;;;;;8.68;5.20;;;23.70;66.90;;;;;;5032941;28;20025;-65
2021/08/12 08:35:15;;;;;;;8.60;5.45;;;23.80;67.20;;;;;;5032497;28;20025;-64
2021/08/12 08:37:40;;;;;;;8.18;5.20;;;23.80;66.40;;;;;;5050899;28;20383;-64
2021/08/12 08:40:06;;;;;;;9.48;5.97;;;23.80;66.70;;;;;;5033105;28;20452;-64
2021/08/12 08:42:33;;;;;;;8.73;5.97;;;23.80;66.90;;;;;;5050375;28;20025;-64
2021/08/12 08:45:00;;;;;;;8.55;5.65;;;23.80;66.70;;;;;;5050704;28;20025;-64
2021/08/12 08:47:27;;;;;;;10.55;6.03;;;23.90;66.40;;;;;;5050799;28;20021;-65
2021/08/12 08:49:55;;;;;;;8.95;6.40;;;23.90;66.50;;;;;;5032510;28;20029;-65
2021/08/12 08:52:24;;;;;;;9.43;6.18;;;23.90;66.30;;;;;;5050946;28;20028;-64
2021/08/12 08:54:50;;;;;;;9.30;6.25;;;23.90;66.50;;;;;;5032728;28;20029;-65
2021/08/12 08:57:17;;;;;;;9.60;6.22;;;23.90;66.40;;;;;;5050335;28;20027;-64
2021/08/12 08:59:42;;;;;;;8.20;5.85;;;24.00;66.30;;;;;;5050886;28;20029;-65
2021/08/12 09:02:09;;;;;;;10.38;6.25;;;24.00;66.20;;;;;;5051869;28;20372;-65
2021/08/12 09:04:37;;;;;;;10.38;7.10;;;24.00;66.00;;;;;;5054105;28;20021;-65
2021/08/12 09:07:09;;;;;;;9.23;5.97;;;24.00;65.90;;;;;;5054705;28;20522;-64
2021/08/12 09:09:35;;;;;;;8.65;6.13;;;24.10;65.70;;;;;;5054734;28;20509;-64
2021/08/12 09:12:02;;;;;;;9.02;6.05;;;24.20;65.50;;;;;;5054225;28;20437;-65
2021/08/12 09:14:28;;;;;;;8.57;5.53;;;24.20;65.10;;;;;;5054287;28;20124;-65
2021/08/12 09:16:54;;;;;;;10.68;6.95;;;24.20;64.90;;;;;;5036532;28;20094;-65
2021/08/12 09:19:20;;;;;;;8.93;6.07;;;24.20;65.00;;;;;;5054105;28;20033;-66
2021/08/12 09:21:58;;;;;;;10.82;6.07;;;24.20;65.00;;;;;;5054497;28;20036;-65
2021/08/12 09:24:24;;;;;;;9.15;5.88;;;24.30;65.10;;;;;;5036256;28;20025;-65
2021/08/12 09:26:50;;;;;;;9.45;6.20;;;24.30;64.90;;;;;;5052501;28;20375;-64
2021/08/12 09:29:33;;;;;;;9.50;5.50;;;24.30;64.70;;;;;;5054244;28;20037;-65
2021/08/12 09:32:04;;;;;;;10.00;6.40;;;24.30;64.60;;;;;;5054318;28;20025;-65
2021/08/12 09:35:05;;;;;;;9.57;5.85;;;24.40;64.20;;;;;;5053488;28;20444;-64
2021/08/12 09:37:33;;;;;;;8.52;5.88;;;24.40;64.20;;;;;;5038876;28;20039;-65
2021/08/12 09:40:03;;;;;;;10.60;5.63;;;24.40;64.00;;;;;;5054148;28;20446;-64
2021/08/12 09:42:29;;;;;;;8.95;5.50;;;24.40;64.00;;;;;;5053604;28;20078;-65
2021/08/12 09:44:55;;;;;;;9.27;6.18;;;24.50;63.90;;;;;;5052545;28;20029;-65
2021/08/12 09:47:28;;;;;;;9.70;5.95;;;24.50;63.80;;;;;;5053942;28;20036;-64
2021/08/12 09:49:56;;;;;;;9.27;6.03;;;24.50;64.00;;;;;;5053531;28;20059;-65
2021/08/12 09:52:34;;;;;;;7.88;4.72;;;24.50;64.00;;;;;;5014350;28;20061;-62
2021/08/12 09:55:14;;;;;;;8.70;5.32;;;24.60;64.10;;;;;;5002145;28;20367;-64
2021/08/12 09:57:51;;;;;;;7.95;5.13;;;24.70;63.70;;;;;;5023839;28;20064;-64
2021/08/12 10:00:25;;;;;;;10.38;5.50;;;24.70;63.70;;;;;;5042985;28;20261;-63
2021/08/12 10:02:52;;;;;;;8.07;5.28;;;24.70;63.30;;;;;;5028176;28;20087;-63
2021/08/12 10:05:18;;;;;;;8.77;5.55;;;24.70;63.30;;;;;;5010433;28;20056;-66
2021/08/12 10:07:52;;;;;;;9.52;5.88;;;24.70;63.30;;;;;;5025843;28;20489;-64
2021/08/12 10:10:23;;;;;;;8.30;5.38;;;24.70;63.30;;;;;;5024016;28;20440;-63
2021/08/12 10:12:54;;;;;;;8.45;5.28;;;24.70;63.20;;;;;;5027210;28;20033;-64
2021/08/12 10:15:25;;;;;;;7.93;5.47;;;24.70;63.40;;;;;;5021991;28;20065;-64
2021/08/12 10:17:53;;;;;;;9.65;5.50;;;24.70;63.40;;;;;;5007274;28;20279;-64
2021/08/12 10:20:25;;;;;;;9.18;5.70;;;24.80;63.30;;;;;;5005600;28;20033;-64
2021/08/12 10:22:52;;;;;;;11.00;5.35;;;24.80;63.20;;;;;;4990495;28;20514;-62
2021/08/12 10:25:20;;;;;;;8.88;5.00;;;24.70;63.20;;;;;;5009404;28;20041;-64
2021/08/12 10:27:48;;;;;;;10.10;5.88;;;24.80;63.40;;;;;;5020619;28;20033;-64
2021/08/12 10:30:14;;;;;;;8.75;5.32;;;24.90;62.80;;;;;;5031432;28;20056;-65
2021/08/12 10:32:45;;;;;;;9.23;5.63;;;25.00;62.90;;;;;;5006736;28;20033;-62
2021/08/12 10:35:11;;;;;;;11.30;5.97;;;25.00;62.60;;;;;;5021249;28;20063;-62
2021/08/12 10:37:37;;;;;;;10.50;6.43;;;25.00;63.00;;;;;;5038029;28;20084;-64
2021/08/12 10:40:03;;;;;;;11.73;5.55;;;25.00;62.90;;;;;;5032169;28;20044;-65
2021/08/12 10:42:29;;;;;;;10.98;5.95;;;24.90;62.80;;;;;;5032869;28;20080;-65
2021/08/12 10:44:55;;;;;;;11.05;5.80;;;25.00;63.20;;;;;;5032490;28;20080;-65
2021/08/12 10:47:44;;;;;;;10.32;6.05;;;25.00;62.70;;;;;;5032161;28;20041;-65
2021/08/12 10:50:22;;;;;;;10.30;5.35;;;25.00;62.70;;;;;;5033056;28;20045;-65
2021/08/12 10:53:14;;;;;;;10.07;6.13;;;25.00;62.60;;;;;;5032870;28;20375;-63
2021/08/12 10:55:51;;;;;;;8.90;5.57;;;25.00;62.80;;;;;;5014589;28;20120;-64
2021/08/12 10:58:22;;;;;;;9.27;6.05;;;25.00;62.90;;;;;;5032803;28;20022;-66
2021/08/12 11:00:48;;;;;;;;;;;25.00;62.70;;;;;;5033122;28;20518;-64
2021/08/12 11:03:13;;;;;;;9.25;5.55;;;25.10;62.60;;;;;;5031884;28;19917;-64
2021/08/12 11:06:01;;;;;;;8.70;5.50;;;25.10;62.40;;;;;;5032635;28;20033;-64
2021/08/12 11:08:49;;;;;;;9.32;6.15;;;25.10;62.20;;;;;;5014893;28;20029;-64
2021/08/12 11:11:21;;;;;;;10.00;6.35;;;25.00;62.40;;;;;;5022350;28;20110;-66
2021/08/12 11:13:52;;;;;;;8.93;5.78;;;25.00;62.20;;;;;;5032004;28;20052;-65
2021/08/12 11:16:19;;;;;;;9.35;6.18;;;25.10;62.50;;;;;;5014808;28;20112;-65
2021/08/12 11:18:46;;;;;;;9.82;6.20;;;25.20;61.70;;;;;;5031790;28;20079;-64
2021/08/12 11:21:30;;;;;;;9.95;6.45;;;25.20;61.70;;;;;;5047678;28;20387;-65
2021/08/12 11:24:10;;;;;;;9.02;5.75;;;25.20;61.90;;;;;;5014131;28;20482;-64
2021/08/12 11:26:44;;;;;;;9.35;6.22;;;25.10;62.00;;;;;;5031880;28;20394;-65
2021/08/12 11:29:22;;;;;;;9.10;6.07;;;25.10;62.00;;;;;;5043116;28;20500;-64
2021/08/12 11:31:47;;;;;;;8.30;5.82;;;25.00;61.80;;;;;;5051591;28;20508;-63
2021/08/12 11:34:35;;;;;;;10.00;6.53;;;25.00;62.00;;;;;;5051398;28;20029;-65
2021/08/12 11:37:27;;;;;;;9.00;6.07;;;25.00;61.80;;;;;;5051877;28;20493;-64
2021/08/12 11:39:59;;;;;;;10.00;6.78;;;25.10;62.10;;;;;;5051535;28;20017;-65
2021/08/12 11:42:29;;;;;;;9.85;6.43;;;25.20;61.40;;;;;;5051771;28;20063;-64
2021/08/12 11:45:01;;;;;;;10.35;6.80;;;25.10;61.60;;;;;;5051487;28;20068;-64
2021/08/12 11:47:27;;;;;;;8.70;6.20;;;25.20;61.50;;;;;;5033181;28;20040;-64
2021/08/12 11:49:55;;;;;;;10.27;6.53;;;25.00;61.60;;;;;;5033897;28;20021;-65
2021/08/12 11:52:32;;;;;;;11.25;6.50;;;25.20;61.60;;;;;;5051754;28;20025;-65
2021/08/12 11:55:06;;;;;;;9.07;6.30;;;25.20;61.10;;;;;;5050651;28;20075;-64
2021/08/12 11:57:56;;;;;;;10.02;6.03;;;25.20;61.30;;;;;;5051458;28;20055;-64
2021/08/12 12:00:22;;;;;;;8.48;5.28;;;25.20;61.50;;;;;;5033690;28;20115;-64
2021/08/12 12:02:53;;;;;;;10.98;6.10;;;25.10;61.90;;;;;;5050880;28;20029;-65
2021/08/12 12:05:25;;;;;;;10.38;6.30;;;25.00;61.90;;;;;;5051383;28;20017;-65
2021/08/12 12:07:52;;;;;;;9.82;6.10;;;25.00;62.20;;;;;;5051364;28;20025;-66
2021/08/12 12:10:25;;;;;;;10.23;5.93;;;24.90;62.20;;;;;;5033073;28;20544;-63
2021/08/12 12:12:51;;;;;;;9.70;6.63;;;25.00;62.30;;;;;;5033035;28;20025;-64
2021/08/12 12:15:41;;;;;;;8.43;5.60;;;25.00;62.50;;;;;;5051190;28;20021;-63
2021/08/12 12:18:08;;;;;;;9.45;5.90;;;25.00;62.40;;;;;;5050584;28;20104;-63
2021/08/12 12:20:36;;;;;;;10.15;6.13;;;25.00;62.30;;;;;;5051215;28;20033;-65
2021/08/12 12:23:07;;;;;;;12.70;6.05;;;24.90;62.60;;;;;;5050982;28;20020;-65
2021/08/12 12:25:37;;;;;;;8.70;6.28;;;24.80;62.80;;;;;;5050844;28;20024;-66
2021/08/12 12:28:03;;;;;;;8.93;5.70;;;24.90;63.00;;;;;;5049599;28;20029;-64
2021/08/12 12:30:32;;;;;;;8.02;5.07;;;24.90;63.10;;;;;;5030905;28;20032;-65
2021/08/12 12:33:14;;;;;;;8.05;4.82;;;24.80;63.10;;;;;;5029074;28;20033;-65
2021/08/12 12:35:45;;;;;;;10.15;6.18;;;24.80;63.30;;;;;;5030992;28;20025;-65
2021/08/12 12:38:13;;;;;;;10.13;5.97;;;24.80;62.80;;;;;;5030115;28;20030;-65
2021/08/12 12:40:39;;;;;;;9.20;5.60;;;24.80;62.50;;;;;;5046492;28;20121;-65
2021/08/12 12:43:06;;;;;;;9.13;5.85;;;24.80;62.60;;;;;;5030650;28;20022;-64
2021/08/12 12:45:46;;;;;;;8.38;5.72;;;24.90;62.70;;;;;;5030467;28;20498;-64
2021/08/12 12:48:12;;;;;;;8.13;5.90;;;24.90;62.20;;;;;;5031011;28;20025;-65
2021/08/12 12:50:48;;;;;;;9.80;6.28;;;24.80;62.50;;;;;;5029553;28;20402;-65